Time;durP1;ratioP1;P1;durP2;ratioP2;P2;SDS_P1;SDS_P2;PMS_P1;PMS_P2;Temp;Humidity;BMP_temperature;BMP_pressure;BME280_temperature;BME280_humidity;BME280_pressure;Samples;Min_cycle;Max_cycle;Signal;HPM_P1;HPM_P2
2020/12/26 00:05:10;;;;;;;3.70;3.40;;;;;;;;;;4477567;28;20090;-63
2020/12/26 00:07:36;;;;;;;4.12;3.72;;;;;;;;;;4191669;34;20130;-63
2020/12/26 00:10:02;;;;;;;4.18;3.78;;;;;;;;;;4199272;34;20549;-65
2020/12/26 00:12:29;;;;;;;4.47;4.07;;;;;;;;;;4204841;34;20461;-66
2020/12/26 00:14:55;;;;;;;4.20;3.80;;;;;;;;;;4191527;34;20121;-65
2020/12/26 00:17:21;;;;;;;4.50;4.07;;;;;;;;;;4191671;34;20541;-66
2020/12/26 00:19:46;;;;;;;3.90;3.60;;;;;;;;;;4191413;34;20138;-65
2020/12/26 00:22:12;;;;;;;4.20;3.80;;;;;;;;;;4199028;34;20217;-65
2020/12/26 00:24:38;;;;;;;4.60;3.75;;;;;;;;;;4205640;34;20137;-65
2020/12/26 00:27:04;;;;;;;4.20;3.80;;;;;;;;;;4205606;34;20106;-65
2020/12/26 00:29:30;;;;;;;4.55;4.15;;;;;;;;;;4205141;34;20177;-65
2020/12/26 00:31:56;;;;;;;4.25;3.85;;;;;;;;;;4205356;34;20126;-65
2020/12/26 00:34:22;;;;;;;4.53;4.10;;;;;;;;;;4204489;34;20136;-65
2020/12/26 00:36:48;;;;;;;4.53;4.12;;;;;;;;;;4205243;34;20125;-64
2020/12/26 00:39:13;;;;;;;4.87;4.47;;;;;;;;;;4197984;34;20218;-64
2020/12/26 00:41:39;;;;;;;4.82;4.32;;;;;;;;;;4191444;34;20274;-64
2020/12/26 00:44:05;;;;;;;4.50;4.10;;;;;;;;;;4191379;34;20200;-64
2020/12/26 00:46:31;;;;;;;4.80;4.40;;;;;;;;;;4178650;34;20119;-64
2020/12/26 00:48:57;;;;;;;4.70;4.30;;;;;;;;;;4191284;34;20167;-65
2020/12/26 00:51:23;;;;;;;4.70;4.30;;;;;;;;;;4191624;34;20107;-65
2020/12/26 00:53:49;;;;;;;6.37;4.60;;;;;;;;;;4191449;34;20196;-64
2020/12/26 00:56:14;;;;;;;5.00;4.50;;;;;;;;;;4191308;34;20158;-64
2020/12/26 00:58:40;;;;;;;5.05;4.55;;;;;;;;;;4191109;34;20454;-64
2020/12/26 01:01:06;;;;;;;4.57;4.10;;;;;;;;;;4191253;34;20133;-64
2020/12/26 01:03:32;;;;;;;4.37;3.97;;;;;;;;;;4191096;34;20568;-64
2020/12/26 01:05:58;;;;;;;6.10;4.22;;;;;;;;;;4180666;34;20133;-64
2020/12/26 01:08:25;;;;;;;5.90;4.37;;;;;;;;;;4192168;34;20091;-64
2020/12/26 01:10:50;;;;;;;4.75;4.28;;;;;;;;;;4192003;34;20477;-65
2020/12/26 01:13:17;;;;;;;5.20;4.60;;;;;;;;;;4192060;34;20098;-65
2020/12/26 01:15:43;;;;;;;5.10;4.60;;;;;;;;;;4204885;34;20112;-65
2020/12/26 01:18:09;;;;;;;4.70;4.30;;;;;;;;;;4204950;34;20094;-65
2020/12/26 01:20:35;;;;;;;4.78;4.32;;;;;;;;;;4204744;34;20535;-64
2020/12/26 01:23:01;;;;;;;4.93;4.43;;;;;;;;;;4205009;34;20568;-64
2020/12/26 01:25:27;;;;;;;4.78;4.35;;;;;;;;;;4204680;34;20560;-64
2020/12/26 01:27:52;;;;;;;4.97;4.43;;;;;;;;;;4192245;34;20145;-64
2020/12/26 01:30:18;;;;;;;5.20;4.60;;;;;;;;;;4204671;34;20125;-64
2020/12/26 01:32:44;;;;;;;5.78;4.32;;;;;;;;;;4204828;34;20190;-64
2020/12/26 01:35:10;;;;;;;5.45;4.50;;;;;;;;;;4204878;34;20110;-64
2020/12/26 01:37:36;;;;;;;4.37;3.97;;;;;;;;;;4192126;34;20454;-64
2020/12/26 01:40:02;;;;;;;4.70;4.30;;;;;;;;;;4199883;34;20190;-64
2020/12/26 01:42:28;;;;;;;4.85;4.18;;;;;;;;;;4191236;34;20519;-65
2020/12/26 01:44:54;;;;;;;4.43;4.03;;;;;;;;;;4190542;34;20202;-64
2020/12/26 01:47:20;;;;;;;4.97;4.47;;;;;;;;;;4178147;34;20447;-64
2020/12/26 01:49:45;;;;;;;5.55;4.68;;;;;;;;;;4166557;34;20145;-64
2020/12/26 01:52:13;;;;;;;4.97;4.37;;;;;;;;;;4166732;34;20141;-64
2020/12/26 01:54:39;;;;;;;4.57;4.18;;;;;;;;;;4178145;34;20130;-63
2020/12/26 01:57:04;;;;;;;5.15;4.28;;;;;;;;;;4191083;34;20217;-64
2020/12/26 01:59:30;;;;;;;4.50;4.10;;;;;;;;;;4177926;34;20137;-63
2020/12/26 02:01:59;;;;;;;4.72;4.22;;;;;;;;;;4178011;34;20205;-64
2020/12/26 02:04:25;;;;;;;5.97;4.00;;;;;;;;;;4190479;34;20121;-64
2020/12/26 02:06:57;;;;;;;4.85;4.35;;;;;;;;;;4198946;34;20140;-64
2020/12/26 02:09:24;;;;;;;4.62;4.22;;;;;;;;;;4191468;34;20122;-64
2020/12/26 02:11:50;;;;;;;6.00;3.97;;;;;;;;;;4191565;34;20474;-64
2020/12/26 02:14:16;;;;;;;4.82;4.22;;;;;;;;;;4204481;34;20117;-64
2020/12/26 02:16:51;;;;;;;5.78;4.47;;;;;;;;;;4204561;34;20145;-64
2020/12/26 02:19:18;;;;;;;;;;;;;;;;;;4204865;34;20137;-64
2020/12/26 02:21:43;;;;;;;;;;;;;;;;;;4204715;34;20004;-64
2020/12/26 02:24:09;;;;;;;4.87;4.45;;;;;;;;;;4204176;34;19997;-64
2020/12/26 02:26:35;;;;;;;4.80;4.30;;;;;;;;;;4191412;34;20528;-64
2020/12/26 02:29:01;;;;;;;5.15;4.45;;;;;;;;;;4204259;34;20124;-64
2020/12/26 02:31:27;;;;;;;4.68;4.15;;;;;;;;;;4191312;34;20102;-64
2020/12/26 02:33:53;;;;;;;4.32;3.92;;;;;;;;;;4191284;34;20451;-64
2020/12/26 02:36:19;;;;;;;5.18;4.20;;;;;;;;;;4204088;34;20142;-64
2020/12/26 02:38:45;;;;;;;4.62;4.15;;;;;;;;;;4203959;34;20133;-64
2020/12/26 02:41:11;;;;;;;4.87;4.37;;;;;;;;;;4191192;34;20137;-64
2020/12/26 02:43:37;;;;;;;5.78;5.28;;;;;;;;;;4204051;34;20125;-64
2020/12/26 02:46:03;;;;;;;5.03;4.47;;;;;;;;;;4203946;34;20458;-64
2020/12/26 02:48:28;;;;;;;5.60;4.35;;;;;;;;;;4179893;34;20121;-64
2020/12/26 02:50:55;;;;;;;5.45;4.65;;;;;;;;;;4190988;34;20122;-64
2020/12/26 02:53:22;;;;;;;5.20;4.70;;;;;;;;;;4203972;34;20105;-64
2020/12/26 02:55:47;;;;;;;5.78;5.15;;;;;;;;;;4203854;34;20102;-65
2020/12/26 02:58:14;;;;;;;5.20;4.70;;;;;;;;;;4205648;34;20099;-64
2020/12/26 03:00:40;;;;;;;5.75;5.18;;;;;;;;;;4206246;34;20118;-65
2020/12/26 03:03:06;;;;;;;5.47;4.70;;;;;;;;;;4206034;34;20522;-64
2020/12/26 03:05:32;;;;;;;4.65;4.22;;;;;;;;;;4192798;34;20209;-65
2020/12/26 03:07:58;;;;;;;5.10;4.60;;;;;;;;;;4193135;34;20525;-64
2020/12/26 03:10:24;;;;;;;5.28;4.55;;;;;;;;;;4205961;34;20522;-65
2020/12/26 03:12:50;;;;;;;5.18;4.65;;;;;;;;;;4205953;34;20090;-65
2020/12/26 03:15:16;;;;;;;5.07;4.57;;;;;;;;;;4206028;34;20120;-65
2020/12/26 03:17:42;;;;;;;5.15;4.65;;;;;;;;;;4205959;34;20641;-65
2020/12/26 03:20:08;;;;;;;5.43;4.90;;;;;;;;;;4205734;34;20122;-65
2020/12/26 03:22:33;;;;;;;6.05;4.90;;;;;;;;;;4206104;34;20557;-65
2020/12/26 03:24:59;;;;;;;5.43;4.80;;;;;;;;;;4205848;34;20122;-65
2020/12/26 03:27:25;;;;;;;6.00;5.22;;;;;;;;;;4181748;34;20113;-65
2020/12/26 03:29:51;;;;;;;4.95;4.45;;;;;;;;;;4192952;34;20118;-65
2020/12/26 03:32:17;;;;;;;5.40;4.90;;;;;;;;;;4205814;34;20090;-65
2020/12/26 03:34:43;;;;;;;5.53;5.03;;;;;;;;;;4192898;34;20281;-65
2020/12/26 03:37:09;;;;;;;5.55;5.05;;;;;;;;;;4205793;34;20701;-64
2020/12/26 03:39:35;;;;;;;5.43;4.93;;;;;;;;;;4192777;34;20110;-64
2020/12/26 03:42:03;;;;;;;5.40;4.90;;;;;;;;;;4205748;34;20232;-65
2020/12/26 03:44:29;;;;;;;5.35;4.85;;;;;;;;;;4205634;34;20209;-65
2020/12/26 03:46:55;;;;;;;5.55;5.03;;;;;;;;;;4205625;34;20139;-64
2020/12/26 03:49:22;;;;;;;5.20;4.70;;;;;;;;;;4192734;34;20605;-65
2020/12/26 03:51:47;;;;;;;5.47;4.97;;;;;;;;;;4205704;34;20125;-64
2020/12/26 03:54:13;;;;;;;8.60;6.05;;;;;;;;;;4205484;34;20230;-64
2020/12/26 03:56:39;;;;;;;5.50;4.97;;;;;;;;;;4205644;34;20128;-64
2020/12/26 03:59:05;;;;;;;5.15;4.65;;;;;;;;;;4205459;34;20113;-66
2020/12/26 04:01:31;;;;;;;5.32;4.82;;;;;;;;;;4193009;34;20097;-65
2020/12/26 04:03:57;;;;;;;5.68;5.12;;;;;;;;;;4192628;34;20216;-64
2020/12/26 04:06:23;;;;;;;5.62;5.12;;;;;;;;;;4192627;34;20101;-64
2020/12/26 04:08:49;;;;;;;4.60;4.20;;;;;;;;;;4205249;34;20185;-65
2020/12/26 04:11:15;;;;;;;6.25;4.90;;;;;;;;;;4205715;34;20144;-65
2020/12/26 04:13:41;;;;;;;5.87;5.28;;;;;;;;;;4205338;34;20465;-65
2020/12/26 04:16:10;;;;;;;5.03;4.53;;;;;;;;;;4205364;34;20129;-65
2020/12/26 04:18:37;;;;;;;5.78;5.18;;;;;;;;;;4205316;34;20127;-65
2020/12/26 04:21:03;;;;;;;5.50;5.00;;;;;;;;;;4204969;34;20113;-65
2020/12/26 04:23:29;;;;;;;5.55;5.05;;;;;;;;;;4192495;34;20168;-64
2020/12/26 04:25:55;;;;;;;6.28;5.70;;;;;;;;;;4205217;34;20141;-65
2020/12/26 04:28:21;;;;;;;8.02;7.22;;;;;;;;;;4205375;34;20116;-65
2020/12/26 04:30:46;;;;;;;8.10;7.30;;;;;;;;;;4204932;34;20120;-64
2020/12/26 04:33:12;;;;;;;9.05;6.82;;;;;;;;;;4205428;34;20098;-67
2020/12/26 04:35:38;;;;;;;9.13;7.15;;;;;;;;;;4205561;34;20125;-64
2020/12/26 04:38:04;;;;;;;7.72;6.60;;;;;;;;;;4205261;34;20218;-64
2020/12/26 04:40:30;;;;;;;7.62;6.82;;;;;;;;;;4204989;34;20541;-64
2020/12/26 04:42:56;;;;;;;8.05;7.22;;;;;;;;;;4192111;34;20133;-65
2020/12/26 04:45:22;;;;;;;7.50;6.53;;;;;;;;;;4192202;34;20109;-64
2020/12/26 04:48:08;;;;;;;7.15;6.45;;;;;;;;;;4192515;34;20602;-64
2020/12/26 04:50:34;;;;;;;6.95;6.25;;;;;;;;;;4192203;34;20109;-64
2020/12/26 04:53:01;;;;;;;6.05;5.45;;;;;;;;;;4205344;34;20089;-64
2020/12/26 04:55:28;;;;;;;5.95;5.40;;;;;;;;;;4192451;34;20226;-64
2020/12/26 04:58:11;;;;;;;6.43;5.82;;;;;;;;;;4205033;34;20445;-64
2020/12/26 05:00:38;;;;;;;6.53;5.93;;;;;;;;;;4204568;34;20102;-64
2020/12/26 05:03:12;;;;;;;6.65;5.95;;;;;;;;;;4192185;34;20126;-65
2020/12/26 05:05:41;;;;;;;6.05;5.47;;;;;;;;;;4204528;34;20125;-64
2020/12/26 05:08:11;;;;;;;7.57;5.57;;;;;;;;;;4204809;34;20117;-64
2020/12/26 05:10:38;;;;;;;6.18;5.55;;;;;;;;;;4192244;34;20102;-64
2020/12/26 05:13:06;;;;;;;5.20;4.70;;;;;;;;;;4205105;34;20110;-64
2020/12/26 05:15:32;;;;;;;5.82;5.22;;;;;;;;;;4192050;34;20113;-64
2020/12/26 05:17:58;;;;;;;5.47;4.97;;;;;;;;;;4204661;34;20105;-64
2020/12/26 05:20:25;;;;;;;6.00;5.40;;;;;;;;;;4204119;34;20639;-64
2020/12/26 05:23:10;;;;;;;7.25;6.55;;;;;;;;;;4204817;34;20409;-64
2020/12/26 05:25:40;;;;;;;7.45;6.50;;;;;;;;;;4204785;34;20128;-63
2020/12/26 05:28:09;;;;;;;7.30;6.50;;;;;;;;;;4204798;34;20098;-64
2020/12/26 05:30:36;;;;;;;7.28;6.53;;;;;;;;;;4204429;34;20148;-64
2020/12/26 05:33:04;;;;;;;6.00;5.40;;;;;;;;;;4180504;34;20102;-63
2020/12/26 05:35:57;;;;;;;7.72;5.60;;;;;;;;;;4191891;34;20129;-64
2020/12/26 05:38:24;;;;;;;5.85;5.25;;;;;;;;;;4192462;34;20102;-64
2020/12/26 05:40:51;;;;;;;6.10;5.40;;;;;;;;;;4191909;34;20256;-65
2020/12/26 05:43:21;;;;;;;6.35;5.75;;;;;;;;;;4204479;34;20197;-65
2020/12/26 05:45:47;;;;;;;6.03;5.43;;;;;;;;;;4191644;34;20115;-65
2020/12/26 05:48:18;;;;;;;6.15;5.18;;;;;;;;;;4204287;34;20205;-65
2020/12/26 05:50:45;;;;;;;5.97;5.22;;;;;;;;;;4204630;34;20133;-63
2020/12/26 05:53:15;;;;;;;6.37;5.70;;;;;;;;;;4204732;34;20229;-65
2020/12/26 05:55:44;;;;;;;6.20;5.60;;;;;;;;;;4204339;34;20134;-65
2020/12/26 05:58:13;;;;;;;5.50;4.90;;;;;;;;;;4191697;34;20185;-64
2020/12/26 06:00:40;;;;;;;5.40;4.90;;;;;;;;;;4204131;34;20733;-63
2020/12/26 06:03:25;;;;;;;5.90;5.30;;;;;;;;;;4178195;34;20205;-64
2020/12/26 06:06:01;;;;;;;5.97;4.78;;;;;;;;;;4192886;34;20551;-63
2020/12/26 06:08:27;;;;;;;;;;;;;;;;;;4204493;34;20216;-63
2020/12/26 06:10:54;;;;;;;5.75;5.20;;;;;;;;;;4204283;34;20004;-64
2020/12/26 06:16:21;;;;;;;7.07;6.37;;;;;;;;;;4204108;34;20118;-65
2020/12/26 06:18:56;;;;;;;6.57;5.47;;;;;;;;;;4204039;34;20145;-67
2020/12/26 06:21:23;;;;;;;6.93;6.20;;;;;;;;;;4184586;34;20761;-63
2020/12/26 06:23:49;;;;;;;8.05;5.37;;;;;;;;;;4189516;34;20126;-65
2020/12/26 06:26:15;;;;;;;7.45;6.18;;;;;;;;;;4170479;34;20125;-63
2020/12/26 06:28:41;;;;;;;8.70;7.80;;;;;;;;;;4165576;34;20142;-64
2020/12/26 06:31:08;;;;;;;8.15;7.05;;;;;;;;;;4165781;34;20114;-63
2020/12/26 06:33:44;;;;;;;8.75;7.85;;;;;;;;;;4189805;34;20130;-64
2020/12/26 06:36:10;;;;;;;;;;;;;;;;;;4192747;34;20129;-63
2020/12/26 06:38:36;;;;;;;;;;;;;;;;;;4205443;34;20001;-63
2020/12/26 06:41:02;;;;;;;8.20;7.25;;;;;;;;;;4192043;34;20088;-63
2020/12/26 06:43:57;;;;;;;6.95;6.30;;;;;;;;;;4204891;34;20292;-63
2020/12/26 06:46:23;;;;;;;7.03;5.93;;;;;;;;;;4205198;34;20121;-64
2020/12/26 06:48:50;;;;;;;6.55;5.85;;;;;;;;;;4204878;34;20501;-66
2020/12/26 06:51:23;;;;;;;7.85;6.43;;;;;;;;;;4193104;34;20106;-62
2020/12/26 06:53:49;;;;;;;6.78;6.07;;;;;;;;;;4192953;34;20125;-64
2020/12/26 06:56:34;;;;;;;6.20;5.30;;;;;;;;;;4205929;34;20219;-64
2020/12/26 06:59:00;;;;;;;8.65;5.70;;;;;;;;;;4205890;34;20294;-63
2020/12/26 07:01:27;;;;;;;6.07;5.47;;;;;;;;;;4205087;34;20113;-64
2020/12/26 07:04:22;;;;;;;7.35;6.65;;;;;;;;;;4205850;34;20108;-66
2020/12/26 07:06:53;;;;;;;6.30;5.65;;;;;;;;;;4161071;34;20118;-65
2020/12/26 07:09:20;;;;;;;6.18;5.55;;;;;;;;;;4192194;34;20105;-66
2020/12/26 07:11:47;;;;;;;6.55;5.90;;;;;;;;;;4191928;34;20478;-65
2020/12/26 07:14:49;;;;;;;6.85;6.18;;;;;;;;;;4179302;34;20143;-66
2020/12/26 07:17:15;;;;;;;5.97;5.37;;;;;;;;;;4150913;34;20106;-65
2020/12/26 07:19:47;;;;;;;7.75;6.95;;;;;;;;;;4191851;34;20106;-66
2020/12/26 07:22:23;;;;;;;7.07;6.22;;;;;;;;;;4179559;34;20098;-64
2020/12/26 07:24:49;;;;;;;;;;;;;;;;;;4192527;34;20522;-66
2020/12/26 07:27:25;;;;;;;6.90;6.15;;;;;;;;;;4192262;34;20004;-63
2020/12/26 07:29:53;;;;;;;6.68;5.85;;;;;;;;;;4192068;34;20156;-66
2020/12/26 07:32:38;;;;;;;6.78;4.82;;;;;;;;;;4179923;34;20107;-70
2020/12/26 07:35:04;;;;;;;5.35;4.85;;;;;;;;;;4191847;34;20134;-66
2020/12/26 07:37:30;;;;;;;7.62;4.90;;;;;;;;;;4179134;34;20189;-66
2020/12/26 07:39:56;;;;;;;10.93;8.10;;;;;;;;;;4179086;34;20530;-66
2020/12/26 07:42:22;;;;;;;14.32;9.90;;;;;;;;;;4191609;34;20432;-65
2020/12/26 07:44:51;;;;;;;9.25;6.87;;;;;;;;;;4179205;34;20209;-65
2020/12/26 07:47:17;;;;;;;9.70;8.10;;;;;;;;;;4179044;34;20118;-66
2020/12/26 07:49:55;;;;;;;10.18;9.10;;;;;;;;;;4178755;34;20561;-65
2020/12/26 07:52:21;;;;;;;8.48;7.05;;;;;;;;;;4180257;34;20098;-65
2020/12/26 07:54:58;;;;;;;8.05;7.25;;;;;;;;;;4191837;34;20098;-64
2020/12/26 07:57:25;;;;;;;8.85;7.20;;;;;;;;;;4179537;34;20099;-64
2020/12/26 07:59:51;;;;;;;7.95;7.00;;;;;;;;;;4191596;34;20132;-64
2020/12/26 08:02:17;;;;;;;6.82;5.80;;;;;;;;;;4197926;34;20198;-63
2020/12/26 08:04:43;;;;;;;5.25;3.95;;;;;;;;;;4183128;34;20217;-65
2020/12/26 08:07:17;;;;;;;4.80;4.40;;;;;;;;;;4205427;34;20127;-65
2020/12/26 08:09:49;;;;;;;8.02;4.70;;;;;;;;;;4196779;34;20447;-67
2020/12/26 08:12:15;;;;;;;4.55;4.05;;;;;;;;;;4191601;34;20200;-66
2020/12/26 08:14:41;;;;;;;5.72;3.75;;;;;;;;;;4191641;34;20541;-66
2020/12/26 08:17:07;;;;;;;4.32;3.70;;;;;;;;;;4193959;34;20181;-64
2020/12/26 08:19:37;;;;;;;3.28;2.85;;;;;;;;;;4192776;34;20113;-65
2020/12/26 08:22:03;;;;;;;6.43;3.17;;;;;;;;;;4205402;34;20562;-68
2020/12/26 08:24:29;;;;;;;4.25;3.28;;;;;;;;;;4205372;34;20122;-64
2020/12/26 08:26:55;;;;;;;4.45;3.67;;;;;;;;;;4205314;34;20548;-62
2020/12/26 08:29:39;;;;;;;5.55;3.92;;;;;;;;;;4205065;34;20526;-62
2020/12/26 08:32:08;;;;;;;4.85;3.15;;;;;;;;;;4192440;34;20121;-64
2020/12/26 08:34:37;;;;;;;6.62;4.25;;;;;;;;;;4187963;34;20194;-64
2020/12/26 08:37:09;;;;;;;6.37;5.45;;;;;;;;;;4191687;34;20462;-64
2020/12/26 08:39:34;;;;;;;5.35;4.85;;;;;;;;;;4179046;34;20132;-61
2020/12/26 08:42:00;;;;;;;5.60;4.82;;;;;;;;;;4167286;34;20458;-62
2020/12/26 08:44:29;;;;;;;6.00;4.20;;;;;;;;;;4191239;34;20570;-61
2020/12/26 08:46:55;;;;;;;4.75;4.05;;;;;;;;;;4191851;34;20086;-62
2020/12/26 08:49:21;;;;;;;6.87;5.78;;;;;;;;;;4191351;34;20129;-63
2020/12/26 08:51:47;;;;;;;4.80;4.15;;;;;;;;;;4191418;34;20122;-66
2020/12/26 08:54:17;;;;;;;7.47;6.70;;;;;;;;;;4177628;34;20120;-64
2020/12/26 08:56:42;;;;;;;6.75;4.87;;;;;;;;;;4191235;34;20519;-64
2020/12/26 08:59:08;;;;;;;7.00;6.30;;;;;;;;;;4191189;34;20140;-64
2020/12/26 09:01:34;;;;;;;7.20;6.50;;;;;;;;;;4191030;34;20113;-60
2020/12/26 09:04:00;;;;;;;6.90;5.78;;;;;;;;;;4178300;34;20198;-61
2020/12/26 09:06:34;;;;;;;4.93;4.43;;;;;;;;;;4191129;34;20110;-62
2020/12/26 09:09:16;;;;;;;5.10;4.60;;;;;;;;;;4178572;34;20493;-64
2020/12/26 09:11:42;;;;;;;6.90;4.60;;;;;;;;;;4191005;34;20459;-63
2020/12/26 09:14:18;;;;;;;5.47;4.60;;;;;;;;;;4191116;34;20118;-64
2020/12/26 09:16:44;;;;;;;4.45;4.00;;;;;;;;;;4191052;34;20254;-64
2020/12/26 09:19:10;;;;;;;5.45;4.65;;;;;;;;;;4191225;34;20136;-62
2020/12/26 09:21:36;;;;;;;7.55;5.37;;;;;;;;;;4190998;34;20122;-64
2020/12/26 09:24:02;;;;;;;9.25;5.43;;;;;;;;;;4190996;34;20545;-63
2020/12/26 09:26:29;;;;;;;9.05;8.15;;;;;;;;;;4190974;34;20519;-64
2020/12/26 09:29:00;;;;;;;6.60;6.00;;;;;;;;;;4195298;34;20140;-67
2020/12/26 09:31:37;;;;;;;8.13;5.65;;;;;;;;;;4204078;34;20189;-64
2020/12/26 09:34:17;;;;;;;6.18;4.35;;;;;;;;;;4204466;34;20477;-64
2020/12/26 09:36:43;;;;;;;6.32;4.35;;;;;;;;;;4204668;34;20137;-64
2020/12/26 09:39:09;;;;;;;6.28;3.95;;;;;;;;;;4204520;34;20133;-62
2020/12/26 09:41:42;;;;;;;6.15;4.00;;;;;;;;;;4191760;34;20194;-63
2020/12/26 09:44:08;;;;;;;3.90;3.50;;;;;;;;;;4204568;34;20098;-64
2020/12/26 09:46:34;;;;;;;5.40;4.35;;;;;;;;;;4204568;34;20236;-64
2020/12/26 09:49:00;;;;;;;6.43;4.90;;;;;;;;;;4204269;34;20133;-64
2020/12/26 09:51:26;;;;;;;9.38;5.35;;;;;;;;;;4204659;34;20145;-64
2020/12/26 09:53:52;;;;;;;6.12;5.10;;;;;;;;;;4204510;34;20129;-63
2020/12/26 09:56:18;;;;;;;7.12;4.60;;;;;;;;;;4204487;34;20523;-63
2020/12/26 09:58:44;;;;;;;10.13;5.18;;;;;;;;;;4204392;34;20184;-63
2020/12/26 10:01:14;;;;;;;7.95;4.45;;;;;;;;;;4204424;34;20097;-63
2020/12/26 10:03:40;;;;;;;5.12;4.62;;;;;;;;;;4204194;34;20094;-62
2020/12/26 10:06:10;;;;;;;5.50;4.60;;;;;;;;;;4205057;34;20284;-63
2020/12/26 10:08:36;;;;;;;6.55;4.45;;;;;;;;;;4206437;34;20121;-60
2020/12/26 10:11:02;;;;;;;5.40;3.87;;;;;;;;;;4206665;34;20138;-63
2020/12/26 10:13:28;;;;;;;5.82;4.03;;;;;;;;;;4206565;34;20524;-64
2020/12/26 10:15:54;;;;;;;5.55;4.20;;;;;;;;;;4193430;34;20134;-63
2020/12/26 10:18:20;;;;;;;7.90;3.78;;;;;;;;;;4206397;34;20549;-64
2020/12/26 10:20:46;;;;;;;6.50;3.37;;;;;;;;;;4206201;34;20546;-64
2020/12/26 10:23:11;;;;;;;5.32;3.35;;;;;;;;;;4206176;34;20114;-64
2020/12/26 10:25:37;;;;;;;4.50;3.33;;;;;;;;;;4206459;34;20102;-64
2020/12/26 10:28:03;;;;;;;8.50;3.75;;;;;;;;;;4193388;34;20200;-63
2020/12/26 10:30:30;;;;;;;6.70;3.75;;;;;;;;;;4206249;34;20121;-63
2020/12/26 10:32:55;;;;;;;6.25;3.42;;;;;;;;;;4206268;34;20118;-63
2020/12/26 10:35:21;;;;;;;7.32;3.42;;;;;;;;;;4206105;34;20552;-63
2020/12/26 10:37:47;;;;;;;6.90;4.35;;;;;;;;;;4206214;34;20128;-63
2020/12/26 10:40:13;;;;;;;6.37;3.78;;;;;;;;;;4206176;34;20133;-63
2020/12/26 10:42:39;;;;;;;7.40;4.40;;;;;;;;;;4206178;34;20102;-64
2020/12/26 10:45:05;;;;;;;5.43;4.12;;;;;;;;;;4206294;34;20225;-63
2020/12/26 10:47:31;;;;;;;2.78;2.47;;;;;;;;;;4205894;34;20133;-64
2020/12/26 10:49:56;;;;;;;12.37;2.92;;;;;;;;;;4205967;34;20214;-64
2020/12/26 10:52:22;;;;;;;4.18;3.25;;;;;;;;;;4206082;34;20217;-63
2020/12/26 10:54:48;;;;;;;5.00;3.85;;;;;;;;;;4205982;34;20129;-63
2020/12/26 10:57:15;;;;;;;8.30;4.97;;;;;;;;;;4193383;34;20416;-64
2020/12/26 10:59:41;;;;;;;6.75;4.10;;;;;;;;;;4206053;34;20208;-66
2020/12/26 11:02:06;;;;;;;5.87;3.62;;;;;;;;;;4193209;34;20117;-64
2020/12/26 11:04:32;;;;;;;4.18;3.70;;;;;;;;;;4205716;34;20121;-64
2020/12/26 11:06:58;;;;;;;6.62;3.33;;;;;;;;;;4205974;34;20542;-64
2020/12/26 11:09:24;;;;;;;6.43;4.28;;;;;;;;;;4206066;34;20587;-65
2020/12/26 11:11:51;;;;;;;7.37;4.15;;;;;;;;;;4205945;34;20471;-62
2020/12/26 11:14:17;;;;;;;3.45;3.15;;;;;;;;;;4205724;34;20125;-66
2020/12/26 11:16:47;;;;;;;7.62;3.35;;;;;;;;;;4205829;34;20105;-64
2020/12/26 11:19:13;;;;;;;4.68;3.53;;;;;;;;;;4205726;34;20094;-63
2020/12/26 11:21:39;;;;;;;5.32;3.65;;;;;;;;;;4193200;34;20189;-63
2020/12/26 11:24:05;;;;;;;4.43;4.03;;;;;;;;;;4200641;34;20167;-64
2020/12/26 11:26:31;;;;;;;4.12;3.72;;;;;;;;;;4194246;34;20100;-65
2020/12/26 11:28:57;;;;;;;6.37;4.50;;;;;;;;;;4204936;34;20549;-66
2020/12/26 11:31:24;;;;;;;8.20;4.53;;;;;;;;;;4203147;34;20225;-67
2020/12/26 11:33:50;;;;;;;4.90;3.80;;;;;;;;;;4199116;34;20123;-63
2020/12/26 11:36:22;;;;;;;4.78;4.28;;;;;;;;;;4200866;34;20118;-64
2020/12/26 11:38:48;;;;;;;4.55;4.15;;;;;;;;;;4190620;34;20247;-67
2020/12/26 11:41:16;;;;;;;4.22;3.40;;;;;;;;;;4192252;34;20099;-65
2020/12/26 11:43:41;;;;;;;4.50;3.60;;;;;;;;;;4192286;34;20112;-65
2020/12/26 11:46:08;;;;;;;4.22;3.83;;;;;;;;;;4203525;34;20140;-66
2020/12/26 11:48:34;;;;;;;5.12;4.62;;;;;;;;;;4203240;34;20377;-66
2020/12/26 11:51:00;;;;;;;4.15;3.78;;;;;;;;;;4203241;34;20129;-65
2020/12/26 11:53:26;;;;;;;4.30;3.90;;;;;;;;;;4193508;34;20134;-66
2020/12/26 11:55:51;;;;;;;4.65;3.95;;;;;;;;;;4189911;34;20122;-66
2020/12/26 11:58:17;;;;;;;5.10;4.50;;;;;;;;;;4190502;34;20194;-66
2020/12/26 12:00:43;;;;;;;6.35;4.62;;;;;;;;;;4191603;34;20306;-66
2020/12/26 12:03:09;;;;;;;5.43;4.55;;;;;;;;;;4191871;34;20137;-66
2020/12/26 12:05:35;;;;;;;4.60;4.20;;;;;;;;;;4191328;34;20148;-66
2020/12/26 12:08:01;;;;;;;4.65;3.78;;;;;;;;;;4191917;34;20142;-66
2020/12/26 12:10:27;;;;;;;4.85;4.10;;;;;;;;;;4177404;34;20116;-66
2020/12/26 12:12:52;;;;;;;3.83;3.42;;;;;;;;;;4197021;34;20172;-66
2020/12/26 12:15:18;;;;;;;4.93;4.12;;;;;;;;;;4201273;34;20102;-65
2020/12/26 12:17:45;;;;;;;4.62;3.97;;;;;;;;;;4191499;34;20450;-65
2020/12/26 12:20:11;;;;;;;4.65;4.22;;;;;;;;;;4186351;34;20100;-67
2020/12/26 12:22:37;;;;;;;5.43;4.62;;;;;;;;;;4192271;34;20181;-68
2020/12/26 12:25:03;;;;;;;9.18;4.50;;;;;;;;;;4205110;34;20267;-67
2020/12/26 12:27:29;;;;;;;5.37;4.47;;;;;;;;;;4192144;34;20105;-66
2020/12/26 12:29:55;;;;;;;4.00;3.60;;;;;;;;;;4191569;34;20117;-66
2020/12/26 12:32:21;;;;;;;5.95;4.03;;;;;;;;;;4191758;34;20194;-66
2020/12/26 12:34:47;;;;;;;5.43;4.35;;;;;;;;;;4191642;34;20120;-65
2020/12/26 12:37:13;;;;;;;5.43;4.47;;;;;;;;;;4179001;34;20506;-67
2020/12/26 12:39:39;;;;;;;5.45;4.95;;;;;;;;;;4191395;34;20716;-64
2020/12/26 12:42:07;;;;;;;9.32;4.10;;;;;;;;;;4191007;34;20113;-68
2020/12/26 12:44:34;;;;;;;4.37;3.83;;;;;;;;;;4191700;34;20248;-66
2020/12/26 12:47:01;;;;;;;5.70;5.20;;;;;;;;;;4205418;34;20094;-67
2020/12/26 12:49:28;;;;;;;6.03;5.05;;;;;;;;;;4204966;34;20097;-65
2020/12/26 12:51:54;;;;;;;6.03;5.43;;;;;;;;;;4191834;34;20542;-65
2020/12/26 12:54:21;;;;;;;5.05;4.47;;;;;;;;;;4205195;34;20156;-61
2020/12/26 12:56:47;;;;;;;5.05;4.55;;;;;;;;;;4192101;34;20098;-65
2020/12/26 12:59:13;;;;;;;5.60;4.95;;;;;;;;;;4191938;34;20209;-66
2020/12/26 13:01:39;;;;;;;7.07;3.95;;;;;;;;;;4204917;34;20137;-66
2020/12/26 13:04:05;;;;;;;5.72;4.70;;;;;;;;;;4204667;34;20113;-66
2020/12/26 13:06:31;;;;;;;6.80;5.20;;;;;;;;;;4204636;34;20114;-67
2020/12/26 13:08:57;;;;;;;6.85;5.15;;;;;;;;;;4204170;34;20102;-62
2020/12/26 13:11:23;;;;;;;6.07;4.03;;;;;;;;;;4205064;34;20189;-60
2020/12/26 13:13:49;;;;;;;5.68;4.20;;;;;;;;;;4204691;34;20454;-61
2020/12/26 13:16:21;;;;;;;6.25;5.65;;;;;;;;;;4204879;34;20615;-60
2020/12/26 13:18:48;;;;;;;7.28;4.68;;;;;;;;;;4180406;34;20232;-62
2020/12/26 13:21:18;;;;;;;5.93;4.62;;;;;;;;;;4204624;34;20125;-64
2020/12/26 13:23:43;;;;;;;5.18;4.30;;;;;;;;;;4204404;34;20178;-64
2020/12/26 13:26:09;;;;;;;4.93;4.40;;;;;;;;;;4204644;34;20094;-61
2020/12/26 13:28:37;;;;;;;5.15;4.65;;;;;;;;;;4204653;34;20125;-61
2020/12/26 13:31:03;;;;;;;5.45;4.70;;;;;;;;;;4204840;34;20186;-61
2020/12/26 13:33:29;;;;;;;5.50;4.70;;;;;;;;;;4204557;34;20114;-62
2020/12/26 13:35:55;;;;;;;5.32;4.82;;;;;;;;;;4192006;34;20117;-63
2020/12/26 13:38:21;;;;;;;8.32;5.03;;;;;;;;;;4204595;34;20445;-62
2020/12/26 13:40:47;;;;;;;5.30;4.80;;;;;;;;;;4204068;34;20302;-62
2020/12/26 13:43:13;;;;;;;5.47;4.43;;;;;;;;;;4191980;34;20138;-61
2020/12/26 13:45:39;;;;;;;13.23;4.95;;;;;;;;;;4202637;34;20550;-61
2020/12/26 13:48:04;;;;;;;5.28;4.78;;;;;;;;;;4196602;34;20125;-60
2020/12/26 13:50:30;;;;;;;8.52;4.68;;;;;;;;;;4183112;34;20524;-61
2020/12/26 13:52:56;;;;;;;10.73;5.07;;;;;;;;;;4191826;34;20184;-62
2020/12/26 13:55:22;;;;;;;17.60;5.40;;;;;;;;;;4195268;34;20634;-63
2020/12/26 13:57:48;;;;;;;6.00;4.60;;;;;;;;;;4190623;34;20122;-61
2020/12/26 14:00:14;;;;;;;7.40;5.65;;;;;;;;;;4190354;34;20475;-62
2020/12/26 14:02:40;;;;;;;10.27;6.30;;;;;;;;;;4192235;34;20604;-62
2020/12/26 14:05:06;;;;;;;12.40;5.70;;;;;;;;;;4203921;34;20670;-64
2020/12/26 14:07:35;;;;;;;7.00;5.05;;;;;;;;;;4204499;34;20105;-62
2020/12/26 14:10:03;;;;;;;6.85;4.47;;;;;;;;;;4203744;34;20202;-62
2020/12/26 14:12:29;;;;;;;7.28;5.05;;;;;;;;;;4191539;34;20132;-64
2020/12/26 14:14:55;;;;;;;10.93;5.40;;;;;;;;;;4204080;34;20141;-64
2020/12/26 14:17:21;;;;;;;6.45;5.57;;;;;;;;;;4204114;34;20521;-62
2020/12/26 14:19:46;;;;;;;8.57;5.30;;;;;;;;;;4201856;34;20122;-63
2020/12/26 14:22:13;;;;;;;10.32;5.15;;;;;;;;;;4190304;34;20178;-62
2020/12/26 14:24:38;;;;;;;7.22;5.53;;;;;;;;;;4190660;34;20102;-64
2020/12/26 14:27:05;;;;;;;8.52;5.15;;;;;;;;;;4190539;34;20206;-64
2020/12/26 14:29:31;;;;;;;6.87;4.70;;;;;;;;;;4189505;34;20114;-64
2020/12/26 14:31:57;;;;;;;7.15;4.93;;;;;;;;;;4190261;34;20122;-62
2020/12/26 14:34:23;;;;;;;9.25;5.32;;;;;;;;;;4190315;34;20114;-63
2020/12/26 14:36:51;;;;;;;5.57;4.32;;;;;;;;;;4190516;34;20226;-61
2020/12/26 14:39:17;;;;;;;5.95;3.97;;;;;;;;;;4190057;34;20208;-60
2020/12/26 14:41:47;;;;;;;14.13;4.25;;;;;;;;;;4165983;34;20125;-62
2020/12/26 14:44:13;;;;;;;9.55;4.87;;;;;;;;;;4177327;34;20137;-62
2020/12/26 14:46:39;;;;;;;5.85;3.95;;;;;;;;;;4177664;34;20545;-62
2020/12/26 14:49:05;;;;;;;13.95;5.00;;;;;;;;;;4190035;34;20222;-62
2020/12/26 14:51:30;;;;;;;7.37;4.93;;;;;;;;;;4190395;34;20454;-65